sensor_id;sensor_type;location;lat;lon;timestamp;temperature;humidity
17851;DHT22;9051;51.548;14.348;2022-07-09T00:01:35;15.80;99.90
17851;DHT22;9051;51.548;14.348;2022-07-09T00:04:07;15.70;99.90
17851;DHT22;9051;51.548;14.348;2022-07-09T00:06:40;15.60;99.90
17851;DHT22;9051;51.548;14.348;2022-07-09T00:09:12;15.50;99.90
17851;DHT22;9051;51.548;14.348;2022-07-09T00:11:44;15.50;99.90
17851;DHT22;9051;51.548;14.348;2022-07-09T00:14:16;15.40;99.90
17851;DHT22;9051;51.548;14.348;2022-07-09T00:16:48;15.40;99.90
17851;DHT22;9051;51.548;14.348;2022-07-09T00:19:20;15.50;99.90
17851;DHT22;9051;51.548;14.348;2022-07-09T00:21:53;15.50;99.90
17851;DHT22;9051;51.548;14.348;2022-07-09T00:24:25;15.50;99.90
17851;DHT22;9051;51.548;14.348;2022-07-09T00:26:57;15.50;99.90
17851;DHT22;9051;51.548;14.348;2022-07-09T00:29:29;15.40;99.90
17851;DHT22;9051;51.548;14.348;2022-07-09T00:32:01;15.40;99.90
17851;DHT22;9051;51.548;14.348;2022-07-09T00:34:33;15.50;99.90
17851;DHT22;9051;51.548;14.348;2022-07-09T00:37:06;15.40;99.90
17851;DHT22;9051;51.548;14.348;2022-07-09T00:39:39;15.40;99.90
17851;DHT22;9051;51.548;14.348;2022-07-09T00:42:11;15.30;99.90
17851;DHT22;9051;51.548;14.348;2022-07-09T00:44:43;15.30;99.90
17851;DHT22;9051;51.548;14.348;2022-07-09T00:47:15;15.20;99.90
17851;DHT22;9051;51.548;14.348;2022-07-09T00:49:47;15.20;99.90
17851;DHT22;9051;51.548;14.348;2022-07-09T00:52:20;15.10;99.90
17851;DHT22;9051;51.548;14.348;2022-07-09T00:54:53;15.00;99.90
17851;DHT22;9051;51.548;14.348;2022-07-09T00:57:26;15.00;99.90
17851;DHT22;9051;51.548;14.348;2022-07-09T00:59:58;15.00;99.90
17851;DHT22;9051;51.548;14.348;2022-07-09T01:02:31;14.90;99.90
17851;DHT22;9051;51.548;14.348;2022-07-09T01:05:03;15.00;99.90
17851;DHT22;9051;51.548;14.348;2022-07-09T01:07:36;15.00;99.90
17851;DHT22;9051;51.548;14.348;2022-07-09T01:10:09;15.00;99.90
17851;DHT22;9051;51.548;14.348;2022-07-09T01:12:42;14.90;99.90
17851;DHT22;9051;51.548;14.348;2022-07-09T01:15:14;14.90;99.90
17851;DHT22;9051;51.548;14.348;2022-07-09T01:17:46;14.90;99.90
17851;DHT22;9051;51.548;14.348;2022-07-09T01:20:22;14.90;99.90
17851;DHT22;9051;51.548;14.348;2022-07-09T01:22:55;14.90;99.90
17851;DHT22;9051;51.548;14.348;2022-07-09T01:25:31;14.90;99.90
17851;DHT22;9051;51.548;14.348;2022-07-09T01:28:07;14.80;99.90
17851;DHT22;9051;51.548;14.348;2022-07-09T01:30:41;14.70;99.90
17851;DHT22;9051;51.548;14.348;2022-07-09T01:33:12;14.70;99.90
17851;DHT22;9051;51.548;14.348;2022-07-09T01:35:46;14.70;99.90
17851;DHT22;9051;51.548;14.348;2022-07-09T01:38:18;14.60;99.90
17851;DHT22;9051;51.548;14.348;2022-07-09T01:40:50;14.60;99.90
17851;DHT22;9051;51.548;14.348;2022-07-09T01:43:22;14.60;99.90
17851;DHT22;9051;51.548;14.348;2022-07-09T01:45:53;14.60;99.90
17851;DHT22;9051;51.548;14.348;2022-07-09T01:48:26;14.50;99.90
17851;DHT22;9051;51.548;14.348;2022-07-09T01:51:00;14.50;99.90
17851;DHT22;9051;51.548;14.348;2022-07-09T01:53:32;14.40;99.90
17851;DHT22;9051;51.548;14.348;2022-07-09T01:56:06;14.50;99.90
17851;DHT22;9051;51.548;14.348;2022-07-09T01:58:41;14.40;99.90
17851;DHT22;9051;51.548;14.348;2022-07-09T02:01:14;14.40;99.90
17851;DHT22;9051;51.548;14.348;2022-07-09T02:03:46;14.30;99.90
17851;DHT22;9051;51.548;14.348;2022-07-09T02:06:19;14.30;99.90
17851;DHT22;9051;51.548;14.348;2022-07-09T02:08:51;14.30;99.90
17851;DHT22;9051;51.548;14.348;2022-07-09T02:11:23;14.30;99.90
17851;DHT22;9051;51.548;14.348;2022-07-09T02:13:55;14.30;99.90
17851;DHT22;9051;51.548;14.348;2022-07-09T02:16:27;14.30;99.90
17851;DHT22;9051;51.548;14.348;2022-07-09T02:19:01;14.30;99.90
17851;DHT22;9051;51.548;14.348;2022-07-09T02:21:35;14.30;99.90
17851;DHT22;9051;51.548;14.348;2022-07-09T02:24:07;14.30;99.90
17851;DHT22;9051;51.548;14.348;2022-07-09T02:26:39;14.30;99.90
17851;DHT22;9051;51.548;14.348;2022-07-09T02:29:11;14.30;99.90
17851;DHT22;9051;51.548;14.348;2022-07-09T02:31:42;14.30;99.90
17851;DHT22;9051;51.548;14.348;2022-07-09T02:34:14;14.20;99.90
17851;DHT22;9051;51.548;14.348;2022-07-09T02:36:47;14.20;99.90
17851;DHT22;9051;51.548;14.348;2022-07-09T02:39:20;14.30;99.90
17851;DHT22;9051;51.548;14.348;2022-07-09T02:41:52;14.20;99.90
17851;DHT22;9051;51.548;14.348;2022-07-09T02:44:24;14.20;99.90
17851;DHT22;9051;51.548;14.348;2022-07-09T02:46:56;14.10;99.90
17851;DHT22;9051;51.548;14.348;2022-07-09T02:49:29;14.10;99.90
17851;DHT22;9051;51.548;14.348;2022-07-09T02:52:03;14.10;99.90
17851;DHT22;9051;51.548;14.348;2022-07-09T02:54:35;14.10;99.90
17851;DHT22;9051;51.548;14.348;2022-07-09T02:57:07;14.00;99.90
17851;DHT22;9051;51.548;14.348;2022-07-09T02:59:39;14.00;99.90
17851;DHT22;9051;51.548;14.348;2022-07-09T03:02:11;14.10;99.90
17851;DHT22;9051;51.548;14.348;2022-07-09T03:04:43;14.10;99.90
17851;DHT22;9051;51.548;14.348;2022-07-09T03:07:16;14.00;99.90
17851;DHT22;9051;51.548;14.348;2022-07-09T03:09:48;13.90;99.90
17851;DHT22;9051;51.548;14.348;2022-07-09T03:12:20;13.80;99.90
17851;DHT22;9051;51.548;14.348;2022-07-09T03:14:52;13.80;99.90
17851;DHT22;9051;51.548;14.348;2022-07-09T03:17:24;13.80;99.90
17851;DHT22;9051;51.548;14.348;2022-07-09T03:19:57;13.80;99.90
17851;DHT22;9051;51.548;14.348;2022-07-09T03:22:30;13.80;99.90
17851;DHT22;9051;51.548;14.348;2022-07-09T03:25:02;13.80;99.90
17851;DHT22;9051;51.548;14.348;2022-07-09T03:27:34;13.80;99.90
17851;DHT22;9051;51.548;14.348;2022-07-09T03:30:07;13.80;99.90
17851;DHT22;9051;51.548;14.348;2022-07-09T03:32:39;13.80;99.90
17851;DHT22;9051;51.548;14.348;2022-07-09T03:35:11;13.90;99.90
17851;DHT22;9051;51.548;14.348;2022-07-09T03:37:44;13.90;99.90
17851;DHT22;9051;51.548;14.348;2022-07-09T03:40:16;13.90;99.90
17851;DHT22;9051;51.548;14.348;2022-07-09T03:42:48;13.90;99.90
17851;DHT22;9051;51.548;14.348;2022-07-09T03:45:20;14.00;99.90
17851;DHT22;9051;51.548;14.348;2022-07-09T03:47:52;13.90;99.90
17851;DHT22;9051;51.548;14.348;2022-07-09T03:50:24;13.90;99.90
17851;DHT22;9051;51.548;14.348;2022-07-09T03:52:58;13.90;99.90
17851;DHT22;9051;51.548;14.348;2022-07-09T03:55:29;13.90;99.90
17851;DHT22;9051;51.548;14.348;2022-07-09T03:58:01;13.90;99.90
17851;DHT22;9051;51.548;14.348;2022-07-09T04:00:33;13.90;99.90
17851;DHT22;9051;51.548;14.348;2022-07-09T04:03:05;13.90;99.90
17851;DHT22;9051;51.548;14.348;2022-07-09T04:05:37;14.00;99.90
17851;DHT22;9051;51.548;14.348;2022-07-09T04:08:11;14.00;99.90
17851;DHT22;9051;51.548;14.348;2022-07-09T04:10:43;14.10;99.90
17851;DHT22;9051;51.548;14.348;2022-07-09T04:13:14;14.10;99.90
17851;DHT22;9051;51.548;14.348;2022-07-09T04:15:46;14.10;99.90
17851;DHT22;9051;51.548;14.348;2022-07-09T04:18:18;14.20;99.90
17851;DHT22;9051;51.548;14.348;2022-07-09T04:20:50;14.20;99.90
17851;DHT22;9051;51.548;14.348;2022-07-09T04:23:24;14.30;99.90
17851;DHT22;9051;51.548;14.348;2022-07-09T04:25:57;14.30;99.90
17851;DHT22;9051;51.548;14.348;2022-07-09T04:28:29;14.30;99.90
17851;DHT22;9051;51.548;14.348;2022-07-09T04:31:01;14.30;99.90
17851;DHT22;9051;51.548;14.348;2022-07-09T04:33:33;14.30;99.90
17851;DHT22;9051;51.548;14.348;2022-07-09T04:36:05;14.30;99.90
17851;DHT22;9051;51.548;14.348;2022-07-09T04:38:38;14.40;99.90
17851;DHT22;9051;51.548;14.348;2022-07-09T04:41:10;14.40;99.90
17851;DHT22;9051;51.548;14.348;2022-07-09T04:43:42;14.50;99.90
17851;DHT22;9051;51.548;14.348;2022-07-09T04:46:14;14.50;99.90
17851;DHT22;9051;51.548;14.348;2022-07-09T04:48:46;14.50;99.90
17851;DHT22;9051;51.548;14.348;2022-07-09T04:51:18;14.50;99.90
17851;DHT22;9051;51.548;14.348;2022-07-09T04:53:52;14.50;99.90
17851;DHT22;9051;51.548;14.348;2022-07-09T04:56:23;14.60;99.90
17851;DHT22;9051;51.548;14.348;2022-07-09T04:58:55;14.60;99.90
17851;DHT22;9051;51.548;14.348;2022-07-09T05:01:30;14.60;99.90
17851;DHT22;9051;51.548;14.348;2022-07-09T05:04:02;14.70;99.90
17851;DHT22;9051;51.548;14.348;2022-07-09T05:06:34;14.80;99.90
17851;DHT22;9051;51.548;14.348;2022-07-09T05:09:07;14.70;99.90
17851;DHT22;9051;51.548;14.348;2022-07-09T05:11:39;14.70;99.90
17851;DHT22;9051;51.548;14.348;2022-07-09T05:14:11;14.60;99.90
17851;DHT22;9051;51.548;14.348;2022-07-09T05:16:43;14.70;99.90
17851;DHT22;9051;51.548;14.348;2022-07-09T05:19:15;14.70;99.90
17851;DHT22;9051;51.548;14.348;2022-07-09T05:21:47;14.70;99.90
17851;DHT22;9051;51.548;14.348;2022-07-09T05:24:21;14.80;99.90
17851;DHT22;9051;51.548;14.348;2022-07-09T05:26:53;14.80;99.90
17851;DHT22;9051;51.548;14.348;2022-07-09T05:29:25;14.90;99.90
17851;DHT22;9051;51.548;14.348;2022-07-09T05:31:57;15.00;99.90
17851;DHT22;9051;51.548;14.348;2022-07-09T05:34:29;15.00;99.90
17851;DHT22;9051;51.548;14.348;2022-07-09T05:37:01;15.00;99.90
17851;DHT22;9051;51.548;14.348;2022-07-09T05:39:34;15.00;99.90
17851;DHT22;9051;51.548;14.348;2022-07-09T05:42:06;15.10;99.90
17851;DHT22;9051;51.548;14.348;2022-07-09T05:44:38;15.20;99.90
17851;DHT22;9051;51.548;14.348;2022-07-09T05:47:10;15.20;99.90
17851;DHT22;9051;51.548;14.348;2022-07-09T05:49:43;15.20;99.90
17851;DHT22;9051;51.548;14.348;2022-07-09T05:52:15;15.10;99.90
17851;DHT22;9051;51.548;14.348;2022-07-09T05:54:48;15.10;99.90
17851;DHT22;9051;51.548;14.348;2022-07-09T05:57:20;15.20;99.90
17851;DHT22;9051;51.548;14.348;2022-07-09T05:59:52;15.20;99.90
17851;DHT22;9051;51.548;14.348;2022-07-09T06:02:24;15.20;99.90
17851;DHT22;9051;51.548;14.348;2022-07-09T06:04:56;15.20;99.90
17851;DHT22;9051;51.548;14.348;2022-07-09T06:07:28;15.10;99.90
17851;DHT22;9051;51.548;14.348;2022-07-09T06:10:01;15.00;99.90
17851;DHT22;9051;51.548;14.348;2022-07-09T06:12:33;15.00;99.90
17851;DHT22;9051;51.548;14.348;2022-07-09T06:15:08;15.00;99.90
17851;DHT22;9051;51.548;14.348;2022-07-09T06:17:40;15.00;99.90
17851;DHT22;9051;51.548;14.348;2022-07-09T06:20:12;15.10;99.90
17851;DHT22;9051;51.548;14.348;2022-07-09T06:22:45;15.20;99.90
17851;DHT22;9051;51.548;14.348;2022-07-09T06:25:19;15.30;99.90
17851;DHT22;9051;51.548;14.348;2022-07-09T06:27:51;15.50;99.90
17851;DHT22;9051;51.548;14.348;2022-07-09T06:30:23;15.50;99.90
17851;DHT22;9051;51.548;14.348;2022-07-09T06:32:55;15.40;99.90
17851;DHT22;9051;51.548;14.348;2022-07-09T06:35:27;15.30;99.90
17851;DHT22;9051;51.548;14.348;2022-07-09T06:37:58;15.30;99.90
17851;DHT22;9051;51.548;14.348;2022-07-09T06:40:32;15.20;99.90
17851;DHT22;9051;51.548;14.348;2022-07-09T06:43:04;15.20;99.90
17851;DHT22;9051;51.548;14.348;2022-07-09T06:45:42;15.10;99.90
17851;DHT22;9051;51.548;14.348;2022-07-09T06:48:14;15.00;99.90
17851;DHT22;9051;51.548;14.348;2022-07-09T06:50:46;14.80;99.90
17851;DHT22;9051;51.548;14.348;2022-07-09T06:53:18;14.70;99.90
17851;DHT22;9051;51.548;14.348;2022-07-09T06:55:51;14.80;99.90
17851;DHT22;9051;51.548;14.348;2022-07-09T06:58:23;14.70;99.90
17851;DHT22;9051;51.548;14.348;2022-07-09T07:00:55;14.70;99.90
17851;DHT22;9051;51.548;14.348;2022-07-09T07:03:27;14.70;99.90
17851;DHT22;9051;51.548;14.348;2022-07-09T07:05:59;14.60;99.90
17851;DHT22;9051;51.548;14.348;2022-07-09T07:08:30;14.60;99.90
17851;DHT22;9051;51.548;14.348;2022-07-09T07:11:04;14.70;99.90
17851;DHT22;9051;51.548;14.348;2022-07-09T07:13:36;14.70;99.90
17851;DHT22;9051;51.548;14.348;2022-07-09T07:16:07;14.80;99.90
17851;DHT22;9051;51.548;14.348;2022-07-09T07:18:39;14.70;99.90
17851;DHT22;9051;51.548;14.348;2022-07-09T07:21:11;14.80;99.90
17851;DHT22;9051;51.548;14.348;2022-07-09T07:23:43;14.70;99.90
17851;DHT22;9051;51.548;14.348;2022-07-09T07:26:16;14.80;99.90
17851;DHT22;9051;51.548;14.348;2022-07-09T07:28:48;14.80;99.90
17851;DHT22;9051;51.548;14.348;2022-07-09T07:31:20;14.80;99.90
17851;DHT22;9051;51.548;14.348;2022-07-09T07:33:53;14.70;99.90
17851;DHT22;9051;51.548;14.348;2022-07-09T07:36:25;14.70;99.90
17851;DHT22;9051;51.548;14.348;2022-07-09T07:38:57;14.70;99.90
17851;DHT22;9051;51.548;14.348;2022-07-09T07:41:30;14.70;99.90
17851;DHT22;9051;51.548;14.348;2022-07-09T07:44:03;14.80;99.90
17851;DHT22;9051;51.548;14.348;2022-07-09T07:46:35;14.70;99.90
17851;DHT22;9051;51.548;14.348;2022-07-09T07:49:07;14.70;99.90
17851;DHT22;9051;51.548;14.348;2022-07-09T07:51:38;14.60;99.90
17851;DHT22;9051;51.548;14.348;2022-07-09T07:54:10;14.60;99.90
17851;DHT22;9051;51.548;14.348;2022-07-09T07:56:44;14.70;99.90
17851;DHT22;9051;51.548;14.348;2022-07-09T07:59:16;14.90;99.90
17851;DHT22;9051;51.548;14.348;2022-07-09T08:01:48;15.00;99.90
17851;DHT22;9051;51.548;14.348;2022-07-09T08:04:20;15.00;99.90
17851;DHT22;9051;51.548;14.348;2022-07-09T08:06:52;15.00;99.90
17851;DHT22;9051;51.548;14.348;2022-07-09T08:09:24;15.10;99.90
17851;DHT22;9051;51.548;14.348;2022-07-09T08:11:57;15.00;99.90
17851;DHT22;9051;51.548;14.348;2022-07-09T08:14:29;15.10;99.90
17851;DHT22;9051;51.548;14.348;2022-07-09T08:17:01;15.00;99.90
17851;DHT22;9051;51.548;14.348;2022-07-09T08:19:33;15.00;99.90
17851;DHT22;9051;51.548;14.348;2022-07-09T08:22:05;15.20;99.90
17851;DHT22;9051;51.548;14.348;2022-07-09T08:24:37;15.30;99.90
17851;DHT22;9051;51.548;14.348;2022-07-09T08:27:10;15.40;99.90
17851;DHT22;9051;51.548;14.348;2022-07-09T08:29:42;15.50;99.90
17851;DHT22;9051;51.548;14.348;2022-07-09T08:32:14;15.50;99.90
17851;DHT22;9051;51.548;14.348;2022-07-09T08:34:46;15.50;99.90
17851;DHT22;9051;51.548;14.348;2022-07-09T08:37:18;15.60;99.90
17851;DHT22;9051;51.548;14.348;2022-07-09T08:39:49;15.80;99.90
17851;DHT22;9051;51.548;14.348;2022-07-09T08:42:23;15.90;99.90
17851;DHT22;9051;51.548;14.348;2022-07-09T08:44:55;15.90;99.90
17851;DHT22;9051;51.548;14.348;2022-07-09T08:47:27;15.90;99.90
17851;DHT22;9051;51.548;14.348;2022-07-09T08:49:59;15.80;99.90
17851;DHT22;9051;51.548;14.348;2022-07-09T08:52:32;15.70;99.90
17851;DHT22;9051;51.548;14.348;2022-07-09T08:55:06;15.70;99.90
17851;DHT22;9051;51.548;14.348;2022-07-09T08:57:40;15.60;99.90
17851;DHT22;9051;51.548;14.348;2022-07-09T09:00:12;15.60;99.90
17851;DHT22;9051;51.548;14.348;2022-07-09T09:02:44;15.60;99.90
17851;DHT22;9051;51.548;14.348;2022-07-09T09:05:16;15.70;99.90
17851;DHT22;9051;51.548;14.348;2022-07-09T09:07:48;15.90;99.90
17851;DHT22;9051;51.548;14.348;2022-07-09T09:10:21;15.90;99.90
17851;DHT22;9051;51.548;14.348;2022-07-09T09:12:59;16.00;99.90
17851;DHT22;9051;51.548;14.348;2022-07-09T09:15:31;16.00;99.90
17851;DHT22;9051;51.548;14.348;2022-07-09T09:18:03;16.10;99.90
17851;DHT22;9051;51.548;14.348;2022-07-09T09:20:34;16.30;99.90
17851;DHT22;9051;51.548;14.348;2022-07-09T09:23:06;16.60;99.90
17851;DHT22;9051;51.548;14.348;2022-07-09T09:25:41;16.80;99.90
17851;DHT22;9051;51.548;14.348;2022-07-09T09:28:14;16.80;99.90
17851;DHT22;9051;51.548;14.348;2022-07-09T09:30:46;17.00;99.90
17851;DHT22;9051;51.548;14.348;2022-07-09T09:33:18;17.20;99.90
17851;DHT22;9051;51.548;14.348;2022-07-09T09:35:50;17.40;99.90
17851;DHT22;9051;51.548;14.348;2022-07-09T09:38:22;17.70;99.90
17851;DHT22;9051;51.548;14.348;2022-07-09T09:40:59;17.90;99.90
17851;DHT22;9051;51.548;14.348;2022-07-09T09:43:35;17.90;99.90
17851;DHT22;9051;51.548;14.348;2022-07-09T09:46:08;17.90;99.90
17851;DHT22;9051;51.548;14.348;2022-07-09T09:48:41;18.00;99.90
17851;DHT22;9051;51.548;14.348;2022-07-09T09:51:16;18.00;99.90
17851;DHT22;9051;51.548;14.348;2022-07-09T09:53:50;18.00;99.90
17851;DHT22;9051;51.548;14.348;2022-07-09T09:56:24;17.90;99.90
17851;DHT22;9051;51.548;14.348;2022-07-09T09:58:58;18.00;99.90
17851;DHT22;9051;51.548;14.348;2022-07-09T10:01:30;17.80;99.90
17851;DHT22;9051;51.548;14.348;2022-07-09T10:04:03;17.80;99.90
17851;DHT22;9051;51.548;14.348;2022-07-09T10:06:36;17.90;99.90
17851;DHT22;9051;51.548;14.348;2022-07-09T10:09:11;17.90;99.90
17851;DHT22;9051;51.548;14.348;2022-07-09T10:11:44;18.10;99.90
17851;DHT22;9051;51.548;14.348;2022-07-09T10:14:31;18.20;99.90
17851;DHT22;9051;51.548;14.348;2022-07-09T10:17:13;18.00;99.90
17851;DHT22;9051;51.548;14.348;2022-07-09T10:19:53;18.00;99.90
17851;DHT22;9051;51.548;14.348;2022-07-09T10:22:34;18.00;99.90
17851;DHT22;9051;51.548;14.348;2022-07-09T10:25:10;18.10;99.90
17851;DHT22;9051;51.548;14.348;2022-07-09T10:27:43;18.30;99.90
17851;DHT22;9051;51.548;14.348;2022-07-09T10:30:26;18.50;99.90
17851;DHT22;9051;51.548;14.348;2022-07-09T10:33:07;18.80;99.90
17851;DHT22;9051;51.548;14.348;2022-07-09T10:35:40;18.80;99.90
17851;DHT22;9051;51.548;14.348;2022-07-09T10:38:13;19.00;99.90
17851;DHT22;9051;51.548;14.348;2022-07-09T10:40:46;19.10;99.90
17851;DHT22;9051;51.548;14.348;2022-07-09T10:43:19;19.00;99.90
17851;DHT22;9051;51.548;14.348;2022-07-09T10:45:53;18.80;99.90
17851;DHT22;9051;51.548;14.348;2022-07-09T10:48:31;18.70;99.90
17851;DHT22;9051;51.548;14.348;2022-07-09T10:51:04;18.70;99.90
17851;DHT22;9051;51.548;14.348;2022-07-09T10:53:36;18.60;99.90
17851;DHT22;9051;51.548;14.348;2022-07-09T10:56:08;18.50;99.90
17851;DHT22;9051;51.548;14.348;2022-07-09T10:58:45;18.40;99.90
17851;DHT22;9051;51.548;14.348;2022-07-09T11:01:23;18.40;99.90
17851;DHT22;9051;51.548;14.348;2022-07-09T11:03:56;18.40;99.90
17851;DHT22;9051;51.548;14.348;2022-07-09T11:06:29;18.30;99.90
17851;DHT22;9051;51.548;14.348;2022-07-09T11:09:11;18.40;99.90
17851;DHT22;9051;51.548;14.348;2022-07-09T11:11:44;18.50;99.90
17851;DHT22;9051;51.548;14.348;2022-07-09T11:14:17;18.70;99.90
17851;DHT22;9051;51.548;14.348;2022-07-09T11:16:59;18.90;99.90
17851;DHT22;9051;51.548;14.348;2022-07-09T11:19:31;19.10;99.90
17851;DHT22;9051;51.548;14.348;2022-07-09T11:22:04;19.30;99.90
17851;DHT22;9051;51.548;14.348;2022-07-09T11:24:36;19.30;99.90
17851;DHT22;9051;51.548;14.348;2022-07-09T11:27:08;19.20;99.90
17851;DHT22;9051;51.548;14.348;2022-07-09T11:29:46;19.10;99.90
17851;DHT22;9051;51.548;14.348;2022-07-09T11:32:20;19.00;99.90
17851;DHT22;9051;51.548;14.348;2022-07-09T11:34:52;19.00;99.90
17851;DHT22;9051;51.548;14.348;2022-07-09T11:37:24;18.80;99.90
17851;DHT22;9051;51.548;14.348;2022-07-09T11:39:56;18.70;99.90
17851;DHT22;9051;51.548;14.348;2022-07-09T11:42:29;18.70;99.90
17851;DHT22;9051;51.548;14.348;2022-07-09T11:45:00;18.70;99.90
17851;DHT22;9051;51.548;14.348;2022-07-09T11:47:35;18.70;99.90
17851;DHT22;9051;51.548;14.348;2022-07-09T11:50:10;18.80;99.90
17851;DHT22;9051;51.548;14.348;2022-07-09T11:52:46;18.80;99.90
17851;DHT22;9051;51.548;14.348;2022-07-09T11:55:19;19.00;99.90
17851;DHT22;9051;51.548;14.348;2022-07-09T11:57:52;18.90;99.90
17851;DHT22;9051;51.548;14.348;2022-07-09T12:00:26;18.80;99.90
17851;DHT22;9051;51.548;14.348;2022-07-09T12:03:00;18.70;99.90
17851;DHT22;9051;51.548;14.348;2022-07-09T12:05:35;18.80;99.90
17851;DHT22;9051;51.548;14.348;2022-07-09T12:08:08;18.70;99.90
17851;DHT22;9051;51.548;14.348;2022-07-09T12:10:40;18.90;99.90
17851;DHT22;9051;51.548;14.348;2022-07-09T12:13:12;19.10;99.90
17851;DHT22;9051;51.548;14.348;2022-07-09T12:15:43;19.30;99.90
17851;DHT22;9051;51.548;14.348;2022-07-09T12:18:17;19.50;99.90
17851;DHT22;9051;51.548;14.348;2022-07-09T12:20:49;19.60;99.90
17851;DHT22;9051;51.548;14.348;2022-07-09T12:23:21;19.50;99.90
17851;DHT22;9051;51.548;14.348;2022-07-09T12:25:52;19.40;99.90
17851;DHT22;9051;51.548;14.348;2022-07-09T12:28:24;19.40;99.90
17851;DHT22;9051;51.548;14.348;2022-07-09T12:30:56;19.30;99.90
17851;DHT22;9051;51.548;14.348;2022-07-09T12:33:29;19.30;99.90
17851;DHT22;9051;51.548;14.348;2022-07-09T12:36:01;19.40;99.90
17851;DHT22;9051;51.548;14.348;2022-07-09T12:38:34;19.30;99.90
17851;DHT22;9051;51.548;14.348;2022-07-09T12:41:06;19.20;99.90
17851;DHT22;9051;51.548;14.348;2022-07-09T12:43:37;19.20;99.90
17851;DHT22;9051;51.548;14.348;2022-07-09T12:46:09;19.00;99.90
17851;DHT22;9051;51.548;14.348;2022-07-09T12:48:42;19.10;99.90
17851;DHT22;9051;51.548;14.348;2022-07-09T12:51:15;19.20;99.90
17851;DHT22;9051;51.548;14.348;2022-07-09T12:53:46;19.30;99.90
17851;DHT22;9051;51.548;14.348;2022-07-09T12:56:19;19.30;99.90
17851;DHT22;9051;51.548;14.348;2022-07-09T12:58:50;19.30;99.90
17851;DHT22;9051;51.548;14.348;2022-07-09T13:01:22;19.30;99.90
17851;DHT22;9051;51.548;14.348;2022-07-09T13:03:55;19.50;99.90
17851;DHT22;9051;51.548;14.348;2022-07-09T13:06:27;19.80;99.90
17851;DHT22;9051;51.548;14.348;2022-07-09T13:09:06;19.90;99.90
17851;DHT22;9051;51.548;14.348;2022-07-09T13:11:39;20.10;99.90
17851;DHT22;9051;51.548;14.348;2022-07-09T13:14:11;20.40;99.90
17851;DHT22;9051;51.548;14.348;2022-07-09T13:16:43;20.50;99.90
17851;DHT22;9051;51.548;14.348;2022-07-09T13:19:16;20.50;99.90
17851;DHT22;9051;51.548;14.348;2022-07-09T13:21:48;20.60;99.90
17851;DHT22;9051;51.548;14.348;2022-07-09T13:24:20;20.60;99.90
17851;DHT22;9051;51.548;14.348;2022-07-09T13:26:53;20.70;99.90
17851;DHT22;9051;51.548;14.348;2022-07-09T13:29:25;20.80;99.90
17851;DHT22;9051;51.548;14.348;2022-07-09T13:31:57;20.90;99.90
17851;DHT22;9051;51.548;14.348;2022-07-09T13:34:30;21.20;99.90
17851;DHT22;9051;51.548;14.348;2022-07-09T13:37:03;21.30;99.90
17851;DHT22;9051;51.548;14.348;2022-07-09T13:39:34;21.40;99.90
17851;DHT22;9051;51.548;14.348;2022-07-09T13:42:07;21.30;99.90
17851;DHT22;9051;51.548;14.348;2022-07-09T13:44:39;21.30;99.90
17851;DHT22;9051;51.548;14.348;2022-07-09T13:47:11;21.40;99.90
17851;DHT22;9051;51.548;14.348;2022-07-09T13:49:46;21.30;99.90
17851;DHT22;9051;51.548;14.348;2022-07-09T13:52:18;21.00;99.90
17851;DHT22;9051;51.548;14.348;2022-07-09T13:54:52;20.90;99.90
17851;DHT22;9051;51.548;14.348;2022-07-09T13:57:25;20.90;99.90
17851;DHT22;9051;51.548;14.348;2022-07-09T13:59:58;20.90;99.90
17851;DHT22;9051;51.548;14.348;2022-07-09T14:02:30;21.00;99.90
17851;DHT22;9051;51.548;14.348;2022-07-09T14:05:05;21.00;99.90
17851;DHT22;9051;51.548;14.348;2022-07-09T14:07:37;21.10;99.90
17851;DHT22;9051;51.548;14.348;2022-07-09T14:10:09;21.30;99.90
17851;DHT22;9051;51.548;14.348;2022-07-09T14:12:41;21.50;99.90
17851;DHT22;9051;51.548;14.348;2022-07-09T14:15:12;21.30;99.90
17851;DHT22;9051;51.548;14.348;2022-07-09T14:17:44;21.30;99.90
17851;DHT22;9051;51.548;14.348;2022-07-09T14:20:18;21.30;99.90
17851;DHT22;9051;51.548;14.348;2022-07-09T14:22:50;21.30;99.90
17851;DHT22;9051;51.548;14.348;2022-07-09T14:25:21;21.70;99.90
17851;DHT22;9051;51.548;14.348;2022-07-09T14:27:55;21.80;99.90
17851;DHT22;9051;51.548;14.348;2022-07-09T14:30:27;21.70;99.90
17851;DHT22;9051;51.548;14.348;2022-07-09T14:32:59;21.50;99.90
17851;DHT22;9051;51.548;14.348;2022-07-09T14:35:32;21.50;99.90
17851;DHT22;9051;51.548;14.348;2022-07-09T14:38:04;21.30;99.90
17851;DHT22;9051;51.548;14.348;2022-07-09T14:40:36;21.30;99.90
17851;DHT22;9051;51.548;14.348;2022-07-09T14:43:08;21.40;99.90
17851;DHT22;9051;51.548;14.348;2022-07-09T14:45:40;21.60;99.90
17851;DHT22;9051;51.548;14.348;2022-07-09T14:48:12;21.80;99.90
17851;DHT22;9051;51.548;14.348;2022-07-09T14:50:45;21.90;99.90
17851;DHT22;9051;51.548;14.348;2022-07-09T14:53:17;22.10;99.90
17851;DHT22;9051;51.548;14.348;2022-07-09T14:55:49;22.10;99.90
17851;DHT22;9051;51.548;14.348;2022-07-09T14:58:21;21.70;99.90
17851;DHT22;9051;51.548;14.348;2022-07-09T15:00:53;21.50;99.90
17851;DHT22;9051;51.548;14.348;2022-07-09T15:03:25;21.60;99.90
17851;DHT22;9051;51.548;14.348;2022-07-09T15:05:58;21.80;99.90
17851;DHT22;9051;51.548;14.348;2022-07-09T15:08:30;22.10;99.90
17851;DHT22;9051;51.548;14.348;2022-07-09T15:11:02;22.30;99.90
17851;DHT22;9051;51.548;14.348;2022-07-09T15:13:34;22.50;99.90
17851;DHT22;9051;51.548;14.348;2022-07-09T15:16:06;22.70;99.90
17851;DHT22;9051;51.548;14.348;2022-07-09T15:18:38;22.90;99.90
17851;DHT22;9051;51.548;14.348;2022-07-09T15:21:11;22.90;99.90
17851;DHT22;9051;51.548;14.348;2022-07-09T15:23:43;22.90;99.90
17851;DHT22;9051;51.548;14.348;2022-07-09T15:26:15;22.80;99.90
17851;DHT22;9051;51.548;14.348;2022-07-09T15:28:47;22.60;99.90
17851;DHT22;9051;51.548;14.348;2022-07-09T15:31:20;22.50;99.90
17851;DHT22;9051;51.548;14.348;2022-07-09T15:33:52;22.80;99.90
17851;DHT22;9051;51.548;14.348;2022-07-09T15:36:26;22.70;99.90
17851;DHT22;9051;51.548;14.348;2022-07-09T15:38:58;22.40;99.90
17851;DHT22;9051;51.548;14.348;2022-07-09T15:41:29;22.10;99.90
17851;DHT22;9051;51.548;14.348;2022-07-09T15:44:04;21.90;99.90
17851;DHT22;9051;51.548;14.348;2022-07-09T15:46:36;21.80;99.90
17851;DHT22;9051;51.548;14.348;2022-07-09T15:49:08;21.80;99.90
17851;DHT22;9051;51.548;14.348;2022-07-09T15:51:41;21.70;99.90
17851;DHT22;9051;51.548;14.348;2022-07-09T15:54:13;21.60;99.90
17851;DHT22;9051;51.548;14.348;2022-07-09T15:56:45;21.60;99.90
17851;DHT22;9051;51.548;14.348;2022-07-09T15:59:17;21.10;99.90
17851;DHT22;9051;51.548;14.348;2022-07-09T16:01:49;20.40;99.90
17851;DHT22;9051;51.548;14.348;2022-07-09T16:04:21;20.10;99.90